sensor_id;sensor_type;location;lat;lon;timestamp;temperature;humidity
13808;DHT22;40769;51.512;5.494;2023-04-25T00:00:35;9.60;99.90
13808;DHT22;40769;51.512;5.494;2023-04-25T00:03:01;9.70;99.90
13808;DHT22;40769;51.512;5.494;2023-04-25T00:05:27;9.80;99.90
13808;DHT22;40769;51.512;5.494;2023-04-25T00:07:52;9.80;99.90
13808;DHT22;40769;51.512;5.494;2023-04-25T00:10:19;9.80;99.90
13808;DHT22;40769;51.512;5.494;2023-04-25T00:12:45;9.80;99.90
13808;DHT22;40769;51.512;5.494;2023-04-25T00:15:11;9.70;99.90
13808;DHT22;40769;51.512;5.494;2023-04-25T00:17:37;9.70;99.90
13808;DHT22;40769;51.512;5.494;2023-04-25T00:20:04;9.60;99.90
13808;DHT22;40769;51.512;5.494;2023-04-25T00:22:30;9.60;99.90
13808;DHT22;40769;51.512;5.494;2023-04-25T00:24:56;9.60;99.90
13808;DHT22;40769;51.512;5.494;2023-04-25T00:27:25;9.60;99.90
13808;DHT22;40769;51.512;5.494;2023-04-25T00:29:51;9.70;99.90
13808;DHT22;40769;51.512;5.494;2023-04-25T00:32:17;9.50;99.90
13808;DHT22;40769;51.512;5.494;2023-04-25T00:34:42;9.50;99.90
13808;DHT22;40769;51.512;5.494;2023-04-25T00:37:08;9.40;99.90
13808;DHT22;40769;51.512;5.494;2023-04-25T00:39:33;9.40;99.90
13808;DHT22;40769;51.512;5.494;2023-04-25T00:42:00;9.30;99.90
13808;DHT22;40769;51.512;5.494;2023-04-25T00:44:27;9.30;99.90
13808;DHT22;40769;51.512;5.494;2023-04-25T00:46:55;9.30;99.90
13808;DHT22;40769;51.512;5.494;2023-04-25T00:49:20;9.10;99.90
13808;DHT22;40769;51.512;5.494;2023-04-25T00:51:46;9.00;99.90
13808;DHT22;40769;51.512;5.494;2023-04-25T00:54:12;8.90;99.90
13808;DHT22;40769;51.512;5.494;2023-04-25T00:56:38;8.80;99.90
13808;DHT22;40769;51.512;5.494;2023-04-25T00:59:04;8.80;99.90
13808;DHT22;40769;51.512;5.494;2023-04-25T01:01:30;8.80;99.90
13808;DHT22;40769;51.512;5.494;2023-04-25T01:03:58;8.80;99.90
13808;DHT22;40769;51.512;5.494;2023-04-25T01:06:25;8.90;99.90
13808;DHT22;40769;51.512;5.494;2023-04-25T01:08:51;8.80;99.90
13808;DHT22;40769;51.512;5.494;2023-04-25T01:11:17;8.80;99.90
13808;DHT22;40769;51.512;5.494;2023-04-25T01:13:43;8.80;99.90
13808;DHT22;40769;51.512;5.494;2023-04-25T01:16:08;8.80;99.90
13808;DHT22;40769;51.512;5.494;2023-04-25T01:18:34;8.80;99.90
13808;DHT22;40769;51.512;5.494;2023-04-25T01:21:10;8.80;99.90
13808;DHT22;40769;51.512;5.494;2023-04-25T01:23:38;8.70;99.90
13808;DHT22;40769;51.512;5.494;2023-04-25T01:26:04;8.60;99.90
13808;DHT22;40769;51.512;5.494;2023-04-25T01:28:31;8.50;99.90
13808;DHT22;40769;51.512;5.494;2023-04-25T01:30:58;8.50;99.90
13808;DHT22;40769;51.512;5.494;2023-04-25T01:33:24;8.40;99.90
13808;DHT22;40769;51.512;5.494;2023-04-25T01:35:50;8.30;99.90
13808;DHT22;40769;51.512;5.494;2023-04-25T01:38:15;8.30;99.90
13808;DHT22;40769;51.512;5.494;2023-04-25T01:40:41;8.30;99.90
13808;DHT22;40769;51.512;5.494;2023-04-25T01:43:08;8.30;99.90
13808;DHT22;40769;51.512;5.494;2023-04-25T01:45:40;8.40;99.90
13808;DHT22;40769;51.512;5.494;2023-04-25T01:48:08;8.40;99.90
13808;DHT22;40769;51.512;5.494;2023-04-25T01:50:34;8.40;99.90
13808;DHT22;40769;51.512;5.494;2023-04-25T01:53:00;8.50;99.90
13808;DHT22;40769;51.512;5.494;2023-04-25T01:55:27;8.50;99.90
13808;DHT22;40769;51.512;5.494;2023-04-25T01:57:53;8.60;99.90
13808;DHT22;40769;51.512;5.494;2023-04-25T02:00:18;8.50;99.90
13808;DHT22;40769;51.512;5.494;2023-04-25T02:02:44;8.40;99.90
13808;DHT22;40769;51.512;5.494;2023-04-25T02:05:10;8.50;99.90
13808;DHT22;40769;51.512;5.494;2023-04-25T02:07:35;8.50;99.90
13808;DHT22;40769;51.512;5.494;2023-04-25T02:10:01;8.60;99.90
13808;DHT22;40769;51.512;5.494;2023-04-25T02:12:27;8.60;99.90
13808;DHT22;40769;51.512;5.494;2023-04-25T02:14:53;8.60;99.90
13808;DHT22;40769;51.512;5.494;2023-04-25T02:17:19;8.70;99.90
13808;DHT22;40769;51.512;5.494;2023-04-25T02:19:46;8.70;99.90
13808;DHT22;40769;51.512;5.494;2023-04-25T02:22:12;8.70;99.90
13808;DHT22;40769;51.512;5.494;2023-04-25T02:24:38;8.70;99.90
13808;DHT22;40769;51.512;5.494;2023-04-25T02:27:04;8.70;99.90
13808;DHT22;40769;51.512;5.494;2023-04-25T02:29:30;8.70;99.90
13808;DHT22;40769;51.512;5.494;2023-04-25T02:31:55;8.70;99.90
13808;DHT22;40769;51.512;5.494;2023-04-25T02:34:21;8.60;99.90
13808;DHT22;40769;51.512;5.494;2023-04-25T02:36:48;8.60;99.90
13808;DHT22;40769;51.512;5.494;2023-04-25T02:39:15;8.50;99.90
13808;DHT22;40769;51.512;5.494;2023-04-25T02:41:40;8.50;99.90
13808;DHT22;40769;51.512;5.494;2023-04-25T02:44:06;8.70;99.90
13808;DHT22;40769;51.512;5.494;2023-04-25T02:46:31;8.90;99.90
13808;DHT22;40769;51.512;5.494;2023-04-25T02:48:57;8.40;99.90
13808;DHT22;40769;51.512;5.494;2023-04-25T02:51:23;8.30;99.90
13808;DHT22;40769;51.512;5.494;2023-04-25T02:53:48;8.30;99.90
13808;DHT22;40769;51.512;5.494;2023-04-25T02:56:14;8.30;99.90
13808;DHT22;40769;51.512;5.494;2023-04-25T02:58:39;8.20;99.90
13808;DHT22;40769;51.512;5.494;2023-04-25T03:01:05;8.20;99.90
13808;DHT22;40769;51.512;5.494;2023-04-25T03:03:31;8.20;99.90
13808;DHT22;40769;51.512;5.494;2023-04-25T03:05:56;8.10;99.90
13808;DHT22;40769;51.512;5.494;2023-04-25T03:08:22;8.80;99.90
13808;DHT22;40769;51.512;5.494;2023-04-25T03:10:48;8.10;99.90
13808;DHT22;40769;51.512;5.494;2023-04-25T03:13:15;8.00;99.90
13808;DHT22;40769;51.512;5.494;2023-04-25T03:15:41;8.00;99.90
13808;DHT22;40769;51.512;5.494;2023-04-25T03:18:06;8.00;99.90
13808;DHT22;40769;51.512;5.494;2023-04-25T03:20:32;7.80;99.90
13808;DHT22;40769;51.512;5.494;2023-04-25T03:22:58;7.70;99.90
13808;DHT22;40769;51.512;5.494;2023-04-25T03:25:23;7.70;99.90
13808;DHT22;40769;51.512;5.494;2023-04-25T03:27:49;7.70;99.90
13808;DHT22;40769;51.512;5.494;2023-04-25T03:30:15;7.70;99.90
13808;DHT22;40769;51.512;5.494;2023-04-25T03:32:40;7.80;99.90
13808;DHT22;40769;51.512;5.494;2023-04-25T03:35:06;7.70;99.90
13808;DHT22;40769;51.512;5.494;2023-04-25T03:37:32;7.60;99.90
13808;DHT22;40769;51.512;5.494;2023-04-25T03:39:58;7.60;99.90
13808;DHT22;40769;51.512;5.494;2023-04-25T03:42:23;7.60;99.90
13808;DHT22;40769;51.512;5.494;2023-04-25T03:44:50;7.50;99.90
13808;DHT22;40769;51.512;5.494;2023-04-25T03:47:16;7.60;99.90
13808;DHT22;40769;51.512;5.494;2023-04-25T03:49:42;7.50;99.90
13808;DHT22;40769;51.512;5.494;2023-04-25T03:52:08;7.60;99.90
13808;DHT22;40769;51.512;5.494;2023-04-25T03:54:33;7.70;99.90
13808;DHT22;40769;51.512;5.494;2023-04-25T03:56:59;7.90;99.90
13808;DHT22;40769;51.512;5.494;2023-04-25T03:59:25;8.00;99.90
13808;DHT22;40769;51.512;5.494;2023-04-25T04:01:51;8.00;99.90
13808;DHT22;40769;51.512;5.494;2023-04-25T04:04:17;8.00;99.90
13808;DHT22;40769;51.512;5.494;2023-04-25T04:06:43;7.90;99.90
13808;DHT22;40769;51.512;5.494;2023-04-25T04:09:09;7.90;99.90
13808;DHT22;40769;51.512;5.494;2023-04-25T04:11:37;8.30;99.90
13808;DHT22;40769;51.512;5.494;2023-04-25T04:14:04;7.90;99.90
13808;DHT22;40769;51.512;5.494;2023-04-25T04:16:30;8.00;99.90
13808;DHT22;40769;51.512;5.494;2023-04-25T04:18:56;8.10;99.90
13808;DHT22;40769;51.512;5.494;2023-04-25T04:21:22;8.10;99.90
13808;DHT22;40769;51.512;5.494;2023-04-25T04:23:48;8.20;99.90
13808;DHT22;40769;51.512;5.494;2023-04-25T04:26:14;8.20;99.90
13808;DHT22;40769;51.512;5.494;2023-04-25T04:28:43;8.20;99.90
13808;DHT22;40769;51.512;5.494;2023-04-25T04:31:12;8.20;99.90
13808;DHT22;40769;51.512;5.494;2023-04-25T04:33:38;8.10;99.90
13808;DHT22;40769;51.512;5.494;2023-04-25T04:36:03;8.10;99.90
13808;DHT22;40769;51.512;5.494;2023-04-25T04:38:29;8.10;99.90
13808;DHT22;40769;51.512;5.494;2023-04-25T04:40:55;8.20;99.90
13808;DHT22;40769;51.512;5.494;2023-04-25T04:43:21;8.20;99.90
13808;DHT22;40769;51.512;5.494;2023-04-25T04:45:48;8.20;99.90
13808;DHT22;40769;51.512;5.494;2023-04-25T04:48:15;8.30;99.90
13808;DHT22;40769;51.512;5.494;2023-04-25T04:50:43;8.50;99.90
13808;DHT22;40769;51.512;5.494;2023-04-25T04:53:11;8.40;99.90
13808;DHT22;40769;51.512;5.494;2023-04-25T04:55:37;8.50;99.90
13808;DHT22;40769;51.512;5.494;2023-04-25T04:58:02;8.40;99.90
13808;DHT22;40769;51.512;5.494;2023-04-25T05:00:28;8.40;99.90
13808;DHT22;40769;51.512;5.494;2023-04-25T05:02:55;8.40;99.90
13808;DHT22;40769;51.512;5.494;2023-04-25T05:05:21;9.30;99.90
13808;DHT22;40769;51.512;5.494;2023-04-25T05:07:47;8.30;99.90
13808;DHT22;40769;51.512;5.494;2023-04-25T05:10:13;8.30;99.90
13808;DHT22;40769;51.512;5.494;2023-04-25T05:12:38;8.40;99.90
13808;DHT22;40769;51.512;5.494;2023-04-25T05:15:04;8.50;99.90
13808;DHT22;40769;51.512;5.494;2023-04-25T05:17:30;8.50;99.90
13808;DHT22;40769;51.512;5.494;2023-04-25T05:19:56;9.00;99.90
13808;DHT22;40769;51.512;5.494;2023-04-25T05:22:22;8.60;99.90
13808;DHT22;40769;51.512;5.494;2023-04-25T05:24:48;8.70;99.90
13808;DHT22;40769;51.512;5.494;2023-04-25T05:27:16;8.80;99.90
13808;DHT22;40769;51.512;5.494;2023-04-25T05:29:41;8.90;99.90
13808;DHT22;40769;51.512;5.494;2023-04-25T05:32:07;8.90;99.90
13808;DHT22;40769;51.512;5.494;2023-04-25T05:34:33;9.00;99.90
13808;DHT22;40769;51.512;5.494;2023-04-25T05:36:59;9.00;99.90
13808;DHT22;40769;51.512;5.494;2023-04-25T05:39:25;9.10;99.90
13808;DHT22;40769;51.512;5.494;2023-04-25T05:41:51;9.10;99.90
13808;DHT22;40769;51.512;5.494;2023-04-25T05:44:17;9.20;99.90
13808;DHT22;40769;51.512;5.494;2023-04-25T05:46:43;9.50;99.90
13808;DHT22;40769;51.512;5.494;2023-04-25T05:49:09;9.30;99.90
13808;DHT22;40769;51.512;5.494;2023-04-25T05:51:35;9.00;99.90
13808;DHT22;40769;51.512;5.494;2023-04-25T05:54:00;9.50;99.90
13808;DHT22;40769;51.512;5.494;2023-04-25T05:56:26;9.60;99.90
13808;DHT22;40769;51.512;5.494;2023-04-25T05:58:52;9.70;99.90
13808;DHT22;40769;51.512;5.494;2023-04-25T06:01:17;9.80;99.90
13808;DHT22;40769;51.512;5.494;2023-04-25T06:03:43;9.90;99.90
13808;DHT22;40769;51.512;5.494;2023-04-25T06:06:09;10.00;99.90
13808;DHT22;40769;51.512;5.494;2023-04-25T06:08:35;10.00;99.90
13808;DHT22;40769;51.512;5.494;2023-04-25T06:11:01;10.20;99.90
13808;DHT22;40769;51.512;5.494;2023-04-25T06:13:26;10.20;99.90
13808;DHT22;40769;51.512;5.494;2023-04-25T06:15:52;10.20;99.90
13808;DHT22;40769;51.512;5.494;2023-04-25T06:18:17;10.30;99.90
13808;DHT22;40769;51.512;5.494;2023-04-25T06:20:43;10.30;99.90
13808;DHT22;40769;51.512;5.494;2023-04-25T06:23:09;10.30;99.90
13808;DHT22;40769;51.512;5.494;2023-04-25T06:25:34;10.40;99.90
13808;DHT22;40769;51.512;5.494;2023-04-25T06:28:00;10.50;99.90
13808;DHT22;40769;51.512;5.494;2023-04-25T06:30:25;10.50;99.90
13808;DHT22;40769;51.512;5.494;2023-04-25T06:32:52;10.60;99.90
13808;DHT22;40769;51.512;5.494;2023-04-25T06:35:18;10.50;99.90
13808;DHT22;40769;51.512;5.494;2023-04-25T06:37:44;10.60;99.90
13808;DHT22;40769;51.512;5.494;2023-04-25T06:40:10;10.50;99.90
13808;DHT22;40769;51.512;5.494;2023-04-25T06:42:36;10.50;99.90
13808;DHT22;40769;51.512;5.494;2023-04-25T06:45:02;10.70;99.90
13808;DHT22;40769;51.512;5.494;2023-04-25T06:47:28;10.80;99.90
13808;DHT22;40769;51.512;5.494;2023-04-25T06:49:55;11.00;99.90
13808;DHT22;40769;51.512;5.494;2023-04-25T06:52:20;11.20;99.90
13808;DHT22;40769;51.512;5.494;2023-04-25T06:54:46;11.40;99.90
13808;DHT22;40769;51.512;5.494;2023-04-25T06:57:12;11.60;99.90
13808;DHT22;40769;51.512;5.494;2023-04-25T06:59:37;11.80;99.90
13808;DHT22;40769;51.512;5.494;2023-04-25T07:02:03;12.30;99.90
13808;DHT22;40769;51.512;5.494;2023-04-25T07:04:29;12.30;99.90
13808;DHT22;40769;51.512;5.494;2023-04-25T07:06:56;12.50;99.90
13808;DHT22;40769;51.512;5.494;2023-04-25T07:09:21;12.80;99.90
13808;DHT22;40769;51.512;5.494;2023-04-25T07:11:47;12.90;99.90
13808;DHT22;40769;51.512;5.494;2023-04-25T07:14:13;13.30;99.90
13808;DHT22;40769;51.512;5.494;2023-04-25T07:16:38;13.30;99.90
13808;DHT22;40769;51.512;5.494;2023-04-25T07:19:04;13.40;99.90
13808;DHT22;40769;51.512;5.494;2023-04-25T07:21:30;13.60;99.90
13808;DHT22;40769;51.512;5.494;2023-04-25T07:23:56;13.70;99.90
13808;DHT22;40769;51.512;5.494;2023-04-25T07:26:22;13.80;99.90
13808;DHT22;40769;51.512;5.494;2023-04-25T07:28:48;14.10;99.90
13808;DHT22;40769;51.512;5.494;2023-04-25T07:31:19;14.30;99.90
13808;DHT22;40769;51.512;5.494;2023-04-25T07:33:45;14.50;99.90
13808;DHT22;40769;51.512;5.494;2023-04-25T07:36:11;14.60;99.90
13808;DHT22;40769;51.512;5.494;2023-04-25T07:38:38;14.80;99.90
13808;DHT22;40769;51.512;5.494;2023-04-25T07:41:04;14.90;99.90
13808;DHT22;40769;51.512;5.494;2023-04-25T07:43:29;15.10;99.90
13808;DHT22;40769;51.512;5.494;2023-04-25T07:45:56;15.20;99.90
13808;DHT22;40769;51.512;5.494;2023-04-25T07:48:22;15.30;99.90
13808;DHT22;40769;51.512;5.494;2023-04-25T07:50:48;15.40;99.90
13808;DHT22;40769;51.512;5.494;2023-04-25T07:53:14;15.40;99.90
13808;DHT22;40769;51.512;5.494;2023-04-25T07:55:40;15.40;99.90
13808;DHT22;40769;51.512;5.494;2023-04-25T07:58:06;15.40;99.90
13808;DHT22;40769;51.512;5.494;2023-04-25T08:00:32;15.40;99.90
13808;DHT22;40769;51.512;5.494;2023-04-25T08:02:58;15.50;99.90
13808;DHT22;40769;51.512;5.494;2023-04-25T08:05:23;15.40;99.90
13808;DHT22;40769;51.512;5.494;2023-04-25T08:07:49;15.40;99.90
13808;DHT22;40769;51.512;5.494;2023-04-25T08:10:15;15.50;99.90
13808;DHT22;40769;51.512;5.494;2023-04-25T08:12:41;15.50;99.90
13808;DHT22;40769;51.512;5.494;2023-04-25T08:15:07;15.50;99.90
13808;DHT22;40769;51.512;5.494;2023-04-25T08:17:33;15.50;99.90
13808;DHT22;40769;51.512;5.494;2023-04-25T08:19:58;15.40;99.90
13808;DHT22;40769;51.512;5.494;2023-04-25T08:22:24;15.30;99.90
13808;DHT22;40769;51.512;5.494;2023-04-25T08:24:50;15.20;99.90
13808;DHT22;40769;51.512;5.494;2023-04-25T08:27:15;15.10;99.90
13808;DHT22;40769;51.512;5.494;2023-04-25T08:29:41;15.00;99.90
13808;DHT22;40769;51.512;5.494;2023-04-25T08:32:07;15.00;99.90
13808;DHT22;40769;51.512;5.494;2023-04-25T08:34:33;15.10;99.90
13808;DHT22;40769;51.512;5.494;2023-04-25T08:36:58;15.10;99.90
13808;DHT22;40769;51.512;5.494;2023-04-25T08:39:24;14.90;99.90
13808;DHT22;40769;51.512;5.494;2023-04-25T08:41:50;15.00;99.90
13808;DHT22;40769;51.512;5.494;2023-04-25T08:44:16;14.90;99.90
13808;DHT22;40769;51.512;5.494;2023-04-25T08:46:42;14.90;99.90
13808;DHT22;40769;51.512;5.494;2023-04-25T08:49:11;15.40;99.90
13808;DHT22;40769;51.512;5.494;2023-04-25T08:51:44;14.90;99.90
13808;DHT22;40769;51.512;5.494;2023-04-25T08:54:12;14.90;99.90
13808;DHT22;40769;51.512;5.494;2023-04-25T08:56:45;15.00;99.90
13808;DHT22;40769;51.512;5.494;2023-04-25T08:59:13;15.20;99.90
13808;DHT22;40769;51.512;5.494;2023-04-25T09:01:39;15.00;99.90
13808;DHT22;40769;51.512;5.494;2023-04-25T09:04:05;15.00;99.90
13808;DHT22;40769;51.512;5.494;2023-04-25T09:06:30;15.10;99.90
13808;DHT22;40769;51.512;5.494;2023-04-25T09:09:07;15.10;99.90
13808;DHT22;40769;51.512;5.494;2023-04-25T09:11:34;15.00;99.90
13808;DHT22;40769;51.512;5.494;2023-04-25T09:14:18;15.00;99.90
13808;DHT22;40769;51.512;5.494;2023-04-25T09:19:31;15.00;99.90
13808;DHT22;40769;51.512;5.494;2023-04-25T09:21:59;15.10;99.90
13808;DHT22;40769;51.512;5.494;2023-04-25T09:26:57;15.10;99.90
13808;DHT22;40769;51.512;5.494;2023-04-25T09:29:29;15.10;99.90
13808;DHT22;40769;51.512;5.494;2023-04-25T09:34:46;15.30;99.90
13808;DHT22;40769;51.512;5.494;2023-04-25T09:37:29;15.40;99.90
13808;DHT22;40769;51.512;5.494;2023-04-25T09:39:56;15.40;99.90
13808;DHT22;40769;51.512;5.494;2023-04-25T09:42:23;15.70;99.90
13808;DHT22;40769;51.512;5.494;2023-04-25T09:44:52;15.60;99.90
13808;DHT22;40769;51.512;5.494;2023-04-25T09:47:17;15.80;99.90
13808;DHT22;40769;51.512;5.494;2023-04-25T09:49:44;15.90;99.90
13808;DHT22;40769;51.512;5.494;2023-04-25T09:52:17;16.00;99.90
13808;DHT22;40769;51.512;5.494;2023-04-25T09:54:44;16.10;99.90
13808;DHT22;40769;51.512;5.494;2023-04-25T09:57:19;16.20;99.90
13808;DHT22;40769;51.512;5.494;2023-04-25T09:59:47;16.20;99.90
13808;DHT22;40769;51.512;5.494;2023-04-25T10:02:21;16.10;99.90
13808;DHT22;40769;51.512;5.494;2023-04-25T10:04:55;16.00;99.90
13808;DHT22;40769;51.512;5.494;2023-04-25T10:07:24;15.80;99.90
13808;DHT22;40769;51.512;5.494;2023-04-25T10:10:03;15.60;99.90
13808;DHT22;40769;51.512;5.494;2023-04-25T10:12:30;15.40;99.90
13808;DHT22;40769;51.512;5.494;2023-04-25T10:14:58;15.40;99.90
13808;DHT22;40769;51.512;5.494;2023-04-25T10:17:24;15.30;99.90
13808;DHT22;40769;51.512;5.494;2023-04-25T10:19:52;15.30;99.90
13808;DHT22;40769;51.512;5.494;2023-04-25T10:22:38;15.40;99.90
13808;DHT22;40769;51.512;5.494;2023-04-25T10:25:05;15.60;99.90
13808;DHT22;40769;51.512;5.494;2023-04-25T10:27:32;15.80;99.90
13808;DHT22;40769;51.512;5.494;2023-04-25T10:30:16;16.00;99.90
13808;DHT22;40769;51.512;5.494;2023-04-25T10:32:42;16.80;99.90
13808;DHT22;40769;51.512;5.494;2023-04-25T10:35:18;16.60;99.90
13808;DHT22;40769;51.512;5.494;2023-04-25T10:37:57;16.70;99.90
13808;DHT22;40769;51.512;5.494;2023-04-25T10:40:23;17.00;99.90
13808;DHT22;40769;51.512;5.494;2023-04-25T10:42:52;17.10;99.90
13808;DHT22;40769;51.512;5.494;2023-04-25T10:45:18;17.40;99.90
13808;DHT22;40769;51.512;5.494;2023-04-25T10:47:45;17.80;99.90
13808;DHT22;40769;51.512;5.494;2023-04-25T10:50:11;18.10;99.90
13808;DHT22;40769;51.512;5.494;2023-04-25T10:52:39;18.40;99.90
13808;DHT22;40769;51.512;5.494;2023-04-25T10:55:08;18.50;99.90
13808;DHT22;40769;51.512;5.494;2023-04-25T10:57:43;18.60;99.90
13808;DHT22;40769;51.512;5.494;2023-04-25T11:00:16;18.70;99.90
13808;DHT22;40769;51.512;5.494;2023-04-25T11:02:42;18.70;99.90
13808;DHT22;40769;51.512;5.494;2023-04-25T11:05:09;18.60;99.90
13808;DHT22;40769;51.512;5.494;2023-04-25T11:07:50;18.40;99.90
13808;DHT22;40769;51.512;5.494;2023-04-25T11:10:17;18.20;99.90
13808;DHT22;40769;51.512;5.494;2023-04-25T11:12:44;18.00;99.90
13808;DHT22;40769;51.512;5.494;2023-04-25T11:15:10;17.80;99.90
13808;DHT22;40769;51.512;5.494;2023-04-25T11:17:35;17.50;99.90
13808;DHT22;40769;51.512;5.494;2023-04-25T11:20:01;17.40;99.90
13808;DHT22;40769;51.512;5.494;2023-04-25T11:22:31;17.10;99.90
13808;DHT22;40769;51.512;5.494;2023-04-25T11:24:57;17.00;99.90
13808;DHT22;40769;51.512;5.494;2023-04-25T11:27:22;16.90;99.90
13808;DHT22;40769;51.512;5.494;2023-04-25T11:29:50;16.80;99.90
13808;DHT22;40769;51.512;5.494;2023-04-25T11:32:17;16.60;99.90
13808;DHT22;40769;51.512;5.494;2023-04-25T11:34:44;16.30;99.90
13808;DHT22;40769;51.512;5.494;2023-04-25T11:37:10;16.10;99.90
13808;DHT22;40769;51.512;5.494;2023-04-25T11:39:37;15.90;99.90
13808;DHT22;40769;51.512;5.494;2023-04-25T11:42:04;15.60;99.90
13808;DHT22;40769;51.512;5.494;2023-04-25T11:44:31;15.40;99.90
13808;DHT22;40769;51.512;5.494;2023-04-25T11:46:56;15.40;99.90
13808;DHT22;40769;51.512;5.494;2023-04-25T11:49:22;15.10;99.90
13808;DHT22;40769;51.512;5.494;2023-04-25T11:51:50;15.00;99.90
13808;DHT22;40769;51.512;5.494;2023-04-25T11:54:16;15.00;99.90
13808;DHT22;40769;51.512;5.494;2023-04-25T11:56:43;14.90;99.90
13808;DHT22;40769;51.512;5.494;2023-04-25T11:59:09;14.90;99.90
13808;DHT22;40769;51.512;5.494;2023-04-25T12:01:36;14.90;99.90
13808;DHT22;40769;51.512;5.494;2023-04-25T12:04:13;15.00;99.90
13808;DHT22;40769;51.512;5.494;2023-04-25T12:06:40;15.20;99.90
13808;DHT22;40769;51.512;5.494;2023-04-25T12:09:08;15.40;99.90
13808;DHT22;40769;51.512;5.494;2023-04-25T12:11:41;15.60;99.90
13808;DHT22;40769;51.512;5.494;2023-04-25T12:14:08;15.90;99.90
13808;DHT22;40769;51.512;5.494;2023-04-25T12:16:44;16.30;99.90
13808;DHT22;40769;51.512;5.494;2023-04-25T12:19:16;16.70;99.90
13808;DHT22;40769;51.512;5.494;2023-04-25T12:21:43;17.10;99.90
13808;DHT22;40769;51.512;5.494;2023-04-25T12:26:59;17.70;99.90
13808;DHT22;40769;51.512;5.494;2023-04-25T12:29:27;18.00;99.90
13808;DHT22;40769;51.512;5.494;2023-04-25T12:31:53;18.10;99.90
13808;DHT22;40769;51.512;5.494;2023-04-25T12:34:20;18.20;99.90
13808;DHT22;40769;51.512;5.494;2023-04-25T12:36:47;18.20;99.90
13808;DHT22;40769;51.512;5.494;2023-04-25T12:39:23;18.10;99.90
13808;DHT22;40769;51.512;5.494;2023-04-25T12:41:50;18.00;99.90
13808;DHT22;40769;51.512;5.494;2023-04-25T12:44:16;18.10;99.90
13808;DHT22;40769;51.512;5.494;2023-04-25T12:46:42;18.10;99.90
13808;DHT22;40769;51.512;5.494;2023-04-25T12:49:08;18.20;99.90
13808;DHT22;40769;51.512;5.494;2023-04-25T12:51:35;18.20;99.90
13808;DHT22;40769;51.512;5.494;2023-04-25T12:54:02;18.20;99.90
13808;DHT22;40769;51.512;5.494;2023-04-25T12:56:28;18.30;99.90
13808;DHT22;40769;51.512;5.494;2023-04-25T12:58:54;18.40;99.90
13808;DHT22;40769;51.512;5.494;2023-04-25T13:01:21;18.60;99.90
13808;DHT22;40769;51.512;5.494;2023-04-25T13:03:47;18.70;99.90
13808;DHT22;40769;51.512;5.494;2023-04-25T13:06:13;18.80;99.90
13808;DHT22;40769;51.512;5.494;2023-04-25T13:08:39;18.90;99.90
13808;DHT22;40769;51.512;5.494;2023-04-25T13:11:05;19.00;99.90
13808;DHT22;40769;51.512;5.494;2023-04-25T13:13:31;18.90;99.90
13808;DHT22;40769;51.512;5.494;2023-04-25T13:15:58;18.80;99.90
13808;DHT22;40769;51.512;5.494;2023-04-25T13:18:23;18.70;99.90
13808;DHT22;40769;51.512;5.494;2023-04-25T13:20:53;18.30;99.90
13808;DHT22;40769;51.512;5.494;2023-04-25T13:23:19;18.10;99.90
13808;DHT22;40769;51.512;5.494;2023-04-25T13:25:46;17.80;99.90
13808;DHT22;40769;51.512;5.494;2023-04-25T13:28:11;17.60;99.90
13808;DHT22;40769;51.512;5.494;2023-04-25T13:30:37;17.50;99.90
13808;DHT22;40769;51.512;5.494;2023-04-25T13:33:02;17.40;99.90
13808;DHT22;40769;51.512;5.494;2023-04-25T13:35:30;17.40;99.90
13808;DHT22;40769;51.512;5.494;2023-04-25T13:37:55;17.40;99.90
13808;DHT22;40769;51.512;5.494;2023-04-25T13:40:21;17.60;99.90
13808;DHT22;40769;51.512;5.494;2023-04-25T13:42:47;17.50;99.90
13808;DHT22;40769;51.512;5.494;2023-04-25T13:45:13;17.70;99.90
13808;DHT22;40769;51.512;5.494;2023-04-25T13:47:39;17.90;99.90
13808;DHT22;40769;51.512;5.494;2023-04-25T13:50:05;18.10;99.90
13808;DHT22;40769;51.512;5.494;2023-04-25T13:52:31;18.30;99.90
13808;DHT22;40769;51.512;5.494;2023-04-25T13:54:57;18.40;99.90
13808;DHT22;40769;51.512;5.494;2023-04-25T13:57:23;18.60;99.90
13808;DHT22;40769;51.512;5.494;2023-04-25T13:59:49;18.70;99.90
13808;DHT22;40769;51.512;5.494;2023-04-25T14:02:15;18.90;99.90
13808;DHT22;40769;51.512;5.494;2023-04-25T14:04:41;19.10;99.90
13808;DHT22;40769;51.512;5.494;2023-04-25T14:07:06;19.30;99.90
13808;DHT22;40769;51.512;5.494;2023-04-25T14:09:32;19.50;99.90
13808;DHT22;40769;51.512;5.494;2023-04-25T14:11:58;19.60;99.90
13808;DHT22;40769;51.512;5.494;2023-04-25T14:14:23;19.70;99.90
13808;DHT22;40769;51.512;5.494;2023-04-25T14:16:49;19.60;99.90
13808;DHT22;40769;51.512;5.494;2023-04-25T14:19:17;19.40;99.90
13808;DHT22;40769;51.512;5.494;2023-04-25T14:21:43;19.00;99.90
13808;DHT22;40769;51.512;5.494;2023-04-25T14:24:09;19.20;99.90
13808;DHT22;40769;51.512;5.494;2023-04-25T14:26:36;18.60;99.90
13808;DHT22;40769;51.512;5.494;2023-04-25T14:29:05;18.30;99.90
13808;DHT22;40769;51.512;5.494;2023-04-25T14:31:32;18.00;99.90
13808;DHT22;40769;51.512;5.494;2023-04-25T14:33:57;17.70;99.90
13808;DHT22;40769;51.512;5.494;2023-04-25T14:36:23;17.30;99.90
13808;DHT22;40769;51.512;5.494;2023-04-25T14:38:49;16.80;99.90
13808;DHT22;40769;51.512;5.494;2023-04-25T14:41:14;16.90;99.90
13808;DHT22;40769;51.512;5.494;2023-04-25T14:43:40;16.60;99.90
13808;DHT22;40769;51.512;5.494;2023-04-25T14:46:06;16.50;99.90
13808;DHT22;40769;51.512;5.494;2023-04-25T14:48:33;16.60;99.90
13808;DHT22;40769;51.512;5.494;2023-04-25T14:50:59;16.70;99.90
13808;DHT22;40769;51.512;5.494;2023-04-25T14:53:25;17.00;99.90
13808;DHT22;40769;51.512;5.494;2023-04-25T14:55:52;17.30;99.90
13808;DHT22;40769;51.512;5.494;2023-04-25T14:58:17;17.50;99.90
13808;DHT22;40769;51.512;5.494;2023-04-25T15:00:43;17.60;99.90
13808;DHT22;40769;51.512;5.494;2023-04-25T15:03:09;17.60;99.90
13808;DHT22;40769;51.512;5.494;2023-04-25T15:05:37;17.70;99.90
13808;DHT22;40769;51.512;5.494;2023-04-25T15:08:02;17.90;99.90
13808;DHT22;40769;51.512;5.494;2023-04-25T15:10:28;18.00;99.90
13808;DHT22;40769;51.512;5.494;2023-04-25T15:12:54;18.20;99.90
13808;DHT22;40769;51.512;5.494;2023-04-25T15:15:20;18.40;99.90
13808;DHT22;40769;51.512;5.494;2023-04-25T15:17:45;18.40;99.90
13808;DHT22;40769;51.512;5.494;2023-04-25T15:20:12;18.50;99.90
13808;DHT22;40769;51.512;5.494;2023-04-25T15:22:40;18.60;99.90
13808;DHT22;40769;51.512;5.494;2023-04-25T15:25:06;18.60;99.90
13808;DHT22;40769;51.512;5.494;2023-04-25T15:27:33;18.70;99.90
13808;DHT22;40769;51.512;5.494;2023-04-25T15:29:59;18.70;99.90
13808;DHT22;40769;51.512;5.494;2023-04-25T15:32:25;19.00;99.90
13808;DHT22;40769;51.512;5.494;2023-04-25T15:34:51;19.10;99.90
13808;DHT22;40769;51.512;5.494;2023-04-25T15:37:17;19.20;99.90
13808;DHT22;40769;51.512;5.494;2023-04-25T15:39:44;19.30;99.90
13808;DHT22;40769;51.512;5.494;2023-04-25T15:42:09;19.30;99.90
13808;DHT22;40769;51.512;5.494;2023-04-25T15:44:35;19.30;99.90